Portada
METAR-TAF:

METAR-TAF

Aeroports :

Aeroport Internacional de Dubai

Dubai, Emirats Àrabs Units

latitud: 25-15-10N, longitud: 055-21-52E, altitud: 8 m

Observació

L'informe es va fer fa 47 minuts, a les 22:00 UTC
Vent 7 kt del Sud
Temperatura 33°C
Humitat 84%
Pressió 993 hPa
Visibilitat: 7000 m

METAR: OMDB 152200Z 19007KT 7000 NSC 33/30 Q0993 NOSIG

Hora: 02:47 (22:47 UTC)

Pronòstic

L'informe es va fer fa 5 hores i 54 minuts, a les 16:53 UTC
Pronòstic vàlid del 15 a les 18 UTC al 17 a les 00 UTC
Vent 7 kt del Sud
Visibilitat: 8000 m
Probabilitat 30%
l' 16 a les 01 UTC al 16 a les 04 UTC
Visibilitat: 4000 m
calitja
Evolucionant progressivament
l' 16 a les 06 UTC al 16 a les 08 UTC
Vent 14 kt del Oest/Nord-Oest
Evolucionant progressivament
l' 16 a les 16 UTC al 16 a les 18 UTC
Vent 5 kt del Sud

TAF: OMDB 151653Z 1518/1700 19007KT 8000 NSC PROB30 1601/1604 4000 HZ BECMG 1606/1608 29014KT BECMG 1616/1618 18005KT

Observacions i pronòstics meteorològics de més de 4000 aeroports (METAR i TAF).

Les estacions disponibles són els punts grocs i vermells al mapa.

Posi el ratolí al punt desitjat per veure el nom de l'estació.

Feu clic per veure les observacions i els pronòstics meteorològics.

Per canviar el mapa: feu clic els botons verds amb una creu de color negre per apropar; al botó verd amb un guió per allunyar la imatge; o en les fletxes verdes per a mapes adjacents.


METAR-TAF: